ドゥシャンベ の空港の天気 - METARとTAF

ドゥシャンベ空港 ( UTDD / DYU ) - タジキスタン ドゥシャンベ
飛行場実況気象(Metar)
観測時間05/26 06:00 TJT (05/26 01:00 UTC)
風向・風速北 4m/s
視程10km以上
天気現象
なし
気温20℃
湿度60%
気圧1011hPa
METARUTDD 260100Z 01004MPS 9999 NSC 20/12 Q1011 R09/D NOSIG RMK QFE691/0921
過去の天気等 Google飛行場航空写真 Wunderground天気予報

過去48時間のMETAR

飛行場予報(TAF)
発表時間: 5/26 05:00 TJT (5/26 00:00 UTC)
予報対象時間: 26日6時 TJT ~ 26日18時 TJT
風向・風速不定 2m/s
視程10km以上
少しの積乱雲 雲底高度 2010m
全天の4割程度の雲 雲底高度 3050m
26日10時 TJT ~ 26日18時 TJT に一時的に
風向・風速西 7m/s
視程3100m
天気現象煙霧
26日10時 TJT ~ 26日18時 TJT に 確率 40% で一時的に
天気現象
TAF UTDD 260000Z 2601/2613 VRB02MPS 9999 FEW066CB SCT100
TEMPO 2605/2613 27007MPS 3100 HZ
PROB40 TEMPO 2605/2613 TS